sensor_id;sensor_type;location;lat;lon;timestamp;P1;durP1;ratioP1;P2;durP2;ratioP2
19985;SDS011;10154;52.474;10.768;2023-05-21T00:00:59;0.20;;;0.20;;
19985;SDS011;10154;52.474;10.768;2023-05-21T00:03:25;0.10;;;0.10;;
19985;SDS011;10154;52.474;10.768;2023-05-21T00:05:52;0.17;;;0.17;;
19985;SDS011;10154;52.474;10.768;2023-05-21T00:08:18;0.60;;;0.57;;
19985;SDS011;10154;52.474;10.768;2023-05-21T00:10:44;0.10;;;0.10;;
19985;SDS011;10154;52.474;10.768;2023-05-21T00:13:09;0.30;;;0.30;;
19985;SDS011;10154;52.474;10.768;2023-05-21T00:15:35;0.40;;;0.40;;
19985;SDS011;10154;52.474;10.768;2023-05-21T00:18:00;0.43;;;0.43;;
19985;SDS011;10154;52.474;10.768;2023-05-21T00:20:26;0.33;;;0.30;;
19985;SDS011;10154;52.474;10.768;2023-05-21T00:22:53;0.50;;;0.50;;
19985;SDS011;10154;52.474;10.768;2023-05-21T00:25:18;0.23;;;0.23;;
19985;SDS011;10154;52.474;10.768;2023-05-21T00:27:44;0.60;;;0.60;;
19985;SDS011;10154;52.474;10.768;2023-05-21T00:30:10;0.37;;;0.37;;
19985;SDS011;10154;52.474;10.768;2023-05-21T00:32:35;0.30;;;0.30;;
19985;SDS011;10154;52.474;10.768;2023-05-21T00:35:00;0.10;;;0.10;;
19985;SDS011;10154;52.474;10.768;2023-05-21T00:37:26;0.20;;;0.20;;
19985;SDS011;10154;52.474;10.768;2023-05-21T00:39:56;0.77;;;0.43;;
19985;SDS011;10154;52.474;10.768;2023-05-21T00:42:22;4.33;;;1.17;;
19985;SDS011;10154;52.474;10.768;2023-05-21T00:44:51;0.43;;;0.43;;
19985;SDS011;10154;52.474;10.768;2023-05-21T00:47:18;0.33;;;0.33;;
19985;SDS011;10154;52.474;10.768;2023-05-21T00:49:45;0.23;;;0.23;;
19985;SDS011;10154;52.474;10.768;2023-05-21T00:52:12;0.20;;;0.20;;
19985;SDS011;10154;52.474;10.768;2023-05-21T00:54:38;0.87;;;0.73;;
19985;SDS011;10154;52.474;10.768;2023-05-21T00:57:03;0.30;;;0.30;;
19985;SDS011;10154;52.474;10.768;2023-05-21T00:59:30;0.10;;;0.10;;
19985;SDS011;10154;52.474;10.768;2023-05-21T01:01:56;0.50;;;0.50;;
19985;SDS011;10154;52.474;10.768;2023-05-21T01:04:28;0.40;;;0.40;;
19985;SDS011;10154;52.474;10.768;2023-05-21T01:06:55;0.87;;;0.70;;
19985;SDS011;10154;52.474;10.768;2023-05-21T01:09:22;0.30;;;0.30;;
19985;SDS011;10154;52.474;10.768;2023-05-21T01:11:49;0.50;;;0.50;;
19985;SDS011;10154;52.474;10.768;2023-05-21T01:14:15;0.53;;;0.53;;
19985;SDS011;10154;52.474;10.768;2023-05-21T01:16:41;0.20;;;0.20;;
19985;SDS011;10154;52.474;10.768;2023-05-21T01:19:09;0.10;;;0.10;;
19985;SDS011;10154;52.474;10.768;2023-05-21T01:21:40;0.20;;;0.20;;
19985;SDS011;10154;52.474;10.768;2023-05-21T01:24:08;0.10;;;0.10;;
19985;SDS011;10154;52.474;10.768;2023-05-21T01:26:33;2.00;;;0.83;;
19985;SDS011;10154;52.474;10.768;2023-05-21T01:29:03;0.30;;;0.20;;
19985;SDS011;10154;52.474;10.768;2023-05-21T01:31:33;0.20;;;0.20;;
19985;SDS011;10154;52.474;10.768;2023-05-21T01:34:02;0.20;;;0.20;;
19985;SDS011;10154;52.474;10.768;2023-05-21T01:36:30;0.20;;;0.20;;
19985;SDS011;10154;52.474;10.768;2023-05-21T01:39:21;0.20;;;0.20;;
19985;SDS011;10154;52.474;10.768;2023-05-21T01:41:48;0.40;;;0.40;;
19985;SDS011;10154;52.474;10.768;2023-05-21T01:44:17;0.10;;;0.10;;
19985;SDS011;10154;52.474;10.768;2023-05-21T01:46:43;0.17;;;0.17;;
19985;SDS011;10154;52.474;10.768;2023-05-21T01:49:08;0.10;;;0.10;;
19985;SDS011;10154;52.474;10.768;2023-05-21T01:51:34;0.67;;;0.50;;
19985;SDS011;10154;52.474;10.768;2023-05-21T01:54:00;0.10;;;0.10;;
19985;SDS011;10154;52.474;10.768;2023-05-21T01:56:26;0.10;;;0.10;;
19985;SDS011;10154;52.474;10.768;2023-05-21T01:58:52;0.30;;;0.30;;
19985;SDS011;10154;52.474;10.768;2023-05-21T02:01:20;0.27;;;0.27;;
19985;SDS011;10154;52.474;10.768;2023-05-21T02:03:46;0.40;;;0.40;;
19985;SDS011;10154;52.474;10.768;2023-05-21T02:06:12;0.27;;;0.27;;
19985;SDS011;10154;52.474;10.768;2023-05-21T02:08:37;1.20;;;0.33;;
19985;SDS011;10154;52.474;10.768;2023-05-21T02:11:03;0.60;;;0.53;;
19985;SDS011;10154;52.474;10.768;2023-05-21T02:13:28;0.20;;;0.20;;
19985;SDS011;10154;52.474;10.768;2023-05-21T02:15:54;0.40;;;0.40;;
19985;SDS011;10154;52.474;10.768;2023-05-21T02:18:20;0.20;;;0.20;;
19985;SDS011;10154;52.474;10.768;2023-05-21T02:20:45;0.20;;;0.20;;
19985;SDS011;10154;52.474;10.768;2023-05-21T02:23:11;0.50;;;0.50;;
19985;SDS011;10154;52.474;10.768;2023-05-21T02:25:36;0.67;;;0.53;;
19985;SDS011;10154;52.474;10.768;2023-05-21T02:28:01;0.10;;;0.10;;
19985;SDS011;10154;52.474;10.768;2023-05-21T02:30:27;0.10;;;0.10;;
19985;SDS011;10154;52.474;10.768;2023-05-21T02:32:53;0.20;;;0.20;;
19985;SDS011;10154;52.474;10.768;2023-05-21T02:35:19;0.20;;;0.20;;
19985;SDS011;10154;52.474;10.768;2023-05-21T02:37:44;0.40;;;0.40;;
19985;SDS011;10154;52.474;10.768;2023-05-21T02:40:10;0.20;;;0.20;;
19985;SDS011;10154;52.474;10.768;2023-05-21T02:42:36;0.97;;;0.93;;
19985;SDS011;10154;52.474;10.768;2023-05-21T02:45:03;0.20;;;0.20;;
19985;SDS011;10154;52.474;10.768;2023-05-21T02:47:30;0.10;;;0.10;;
19985;SDS011;10154;52.474;10.768;2023-05-21T02:49:57;0.30;;;0.30;;
19985;SDS011;10154;52.474;10.768;2023-05-21T02:52:23;0.30;;;0.30;;
19985;SDS011;10154;52.474;10.768;2023-05-21T02:54:48;0.40;;;0.40;;
19985;SDS011;10154;52.474;10.768;2023-05-21T02:57:14;0.10;;;0.10;;
19985;SDS011;10154;52.474;10.768;2023-05-21T02:59:39;0.20;;;0.20;;
19985;SDS011;10154;52.474;10.768;2023-05-21T03:02:05;0.10;;;0.10;;
19985;SDS011;10154;52.474;10.768;2023-05-21T03:04:30;0.10;;;0.10;;
19985;SDS011;10154;52.474;10.768;2023-05-21T03:06:57;0.10;;;0.10;;
19985;SDS011;10154;52.474;10.768;2023-05-21T03:09:26;0.20;;;0.20;;
19985;SDS011;10154;52.474;10.768;2023-05-21T03:11:51;0.63;;;0.60;;
19985;SDS011;10154;52.474;10.768;2023-05-21T03:14:16;0.60;;;0.60;;
19985;SDS011;10154;52.474;10.768;2023-05-21T03:16:42;0.10;;;0.10;;
19985;SDS011;10154;52.474;10.768;2023-05-21T03:19:10;0.17;;;0.17;;
19985;SDS011;10154;52.474;10.768;2023-05-21T03:21:36;0.30;;;0.30;;
19985;SDS011;10154;52.474;10.768;2023-05-21T03:24:03;0.60;;;0.60;;
19985;SDS011;10154;52.474;10.768;2023-05-21T03:26:29;0.10;;;0.10;;
19985;SDS011;10154;52.474;10.768;2023-05-21T03:28:55;0.17;;;0.17;;
19985;SDS011;10154;52.474;10.768;2023-05-21T03:31:21;0.20;;;0.20;;
19985;SDS011;10154;52.474;10.768;2023-05-21T03:33:47;0.37;;;0.37;;
19985;SDS011;10154;52.474;10.768;2023-05-21T03:36:12;0.10;;;0.10;;
19985;SDS011;10154;52.474;10.768;2023-05-21T03:38:38;0.87;;;0.30;;
19985;SDS011;10154;52.474;10.768;2023-05-21T03:41:03;0.20;;;0.20;;
19985;SDS011;10154;52.474;10.768;2023-05-21T03:43:28;0.30;;;0.30;;
19985;SDS011;10154;52.474;10.768;2023-05-21T03:45:54;0.20;;;0.20;;
19985;SDS011;10154;52.474;10.768;2023-05-21T03:48:20;0.20;;;0.20;;
19985;SDS011;10154;52.474;10.768;2023-05-21T03:50:45;0.10;;;0.10;;
19985;SDS011;10154;52.474;10.768;2023-05-21T03:53:10;0.20;;;0.20;;
19985;SDS011;10154;52.474;10.768;2023-05-21T03:55:36;0.10;;;0.10;;
19985;SDS011;10154;52.474;10.768;2023-05-21T03:58:01;0.30;;;0.30;;
19985;SDS011;10154;52.474;10.768;2023-05-21T04:00:27;1.60;;;0.73;;
19985;SDS011;10154;52.474;10.768;2023-05-21T04:02:52;0.30;;;0.30;;
19985;SDS011;10154;52.474;10.768;2023-05-21T04:05:18;0.30;;;0.30;;
19985;SDS011;10154;52.474;10.768;2023-05-21T04:07:43;0.17;;;0.17;;
19985;SDS011;10154;52.474;10.768;2023-05-21T04:10:10;1.60;;;0.77;;
19985;SDS011;10154;52.474;10.768;2023-05-21T04:12:36;0.50;;;0.50;;
19985;SDS011;10154;52.474;10.768;2023-05-21T04:15:01;0.20;;;0.20;;
19985;SDS011;10154;52.474;10.768;2023-05-21T04:17:27;0.67;;;0.40;;
19985;SDS011;10154;52.474;10.768;2023-05-21T04:19:52;0.20;;;0.20;;
19985;SDS011;10154;52.474;10.768;2023-05-21T04:22:18;0.20;;;0.20;;
19985;SDS011;10154;52.474;10.768;2023-05-21T04:24:43;0.20;;;0.20;;
19985;SDS011;10154;52.474;10.768;2023-05-21T04:27:10;0.20;;;0.20;;
19985;SDS011;10154;52.474;10.768;2023-05-21T04:29:36;0.20;;;0.20;;
19985;SDS011;10154;52.474;10.768;2023-05-21T04:32:02;0.60;;;0.60;;
19985;SDS011;10154;52.474;10.768;2023-05-21T04:34:28;0.70;;;0.70;;
19985;SDS011;10154;52.474;10.768;2023-05-21T04:36:53;0.30;;;0.30;;
19985;SDS011;10154;52.474;10.768;2023-05-21T04:39:19;0.20;;;0.20;;
19985;SDS011;10154;52.474;10.768;2023-05-21T04:41:44;0.43;;;0.43;;
19985;SDS011;10154;52.474;10.768;2023-05-21T04:44:10;0.20;;;0.20;;
19985;SDS011;10154;52.474;10.768;2023-05-21T04:46:38;0.27;;;0.27;;
19985;SDS011;10154;52.474;10.768;2023-05-21T04:49:04;0.57;;;0.57;;
19985;SDS011;10154;52.474;10.768;2023-05-21T04:51:29;0.20;;;0.20;;
19985;SDS011;10154;52.474;10.768;2023-05-21T04:53:55;1.47;;;1.37;;
19985;SDS011;10154;52.474;10.768;2023-05-21T04:56:21;0.23;;;0.23;;
19985;SDS011;10154;52.474;10.768;2023-05-21T04:58:50;2.40;;;0.93;;
19985;SDS011;10154;52.474;10.768;2023-05-21T05:01:15;0.10;;;0.10;;
19985;SDS011;10154;52.474;10.768;2023-05-21T05:03:41;0.93;;;0.93;;
19985;SDS011;10154;52.474;10.768;2023-05-21T05:06:06;1.00;;;0.77;;
19985;SDS011;10154;52.474;10.768;2023-05-21T05:08:32;2.40;;;1.07;;
19985;SDS011;10154;52.474;10.768;2023-05-21T05:10:58;0.40;;;0.40;;
19985;SDS011;10154;52.474;10.768;2023-05-21T05:13:23;4.67;;;2.97;;
19985;SDS011;10154;52.474;10.768;2023-05-21T05:15:48;0.80;;;0.70;;
19985;SDS011;10154;52.474;10.768;2023-05-21T05:18:14;0.30;;;0.30;;
19985;SDS011;10154;52.474;10.768;2023-05-21T05:20:40;0.37;;;0.37;;
19985;SDS011;10154;52.474;10.768;2023-05-21T05:23:05;3.30;;;1.57;;
19985;SDS011;10154;52.474;10.768;2023-05-21T05:25:31;2.37;;;1.40;;
19985;SDS011;10154;52.474;10.768;2023-05-21T05:27:56;2.43;;;1.53;;
19985;SDS011;10154;52.474;10.768;2023-05-21T05:30:22;1.07;;;0.83;;
19985;SDS011;10154;52.474;10.768;2023-05-21T05:32:47;0.27;;;0.27;;
19985;SDS011;10154;52.474;10.768;2023-05-21T05:35:12;7.43;;;2.83;;
19985;SDS011;10154;52.474;10.768;2023-05-21T05:37:38;4.97;;;1.97;;
19985;SDS011;10154;52.474;10.768;2023-05-21T05:40:03;1.83;;;1.53;;
19985;SDS011;10154;52.474;10.768;2023-05-21T05:42:29;8.77;;;4.47;;
19985;SDS011;10154;52.474;10.768;2023-05-21T05:44:55;3.83;;;1.90;;
19985;SDS011;10154;52.474;10.768;2023-05-21T05:47:20;0.60;;;0.50;;
19985;SDS011;10154;52.474;10.768;2023-05-21T05:49:46;3.00;;;2.10;;
19985;SDS011;10154;52.474;10.768;2023-05-21T05:52:12;2.67;;;1.67;;
19985;SDS011;10154;52.474;10.768;2023-05-21T05:54:37;1.40;;;1.30;;
19985;SDS011;10154;52.474;10.768;2023-05-21T05:57:02;0.33;;;0.33;;
19985;SDS011;10154;52.474;10.768;2023-05-21T05:59:28;1.60;;;1.30;;
19985;SDS011;10154;52.474;10.768;2023-05-21T06:01:53;5.03;;;0.97;;
19985;SDS011;10154;52.474;10.768;2023-05-21T06:04:19;1.80;;;1.53;;
19985;SDS011;10154;52.474;10.768;2023-05-21T06:06:44;1.33;;;1.10;;
19985;SDS011;10154;52.474;10.768;2023-05-21T06:09:10;4.30;;;1.73;;
19985;SDS011;10154;52.474;10.768;2023-05-21T06:11:35;4.20;;;2.07;;
19985;SDS011;10154;52.474;10.768;2023-05-21T06:14:01;0.53;;;0.40;;
19985;SDS011;10154;52.474;10.768;2023-05-21T06:16:27;0.40;;;0.40;;
19985;SDS011;10154;52.474;10.768;2023-05-21T06:18:55;1.50;;;0.57;;
19985;SDS011;10154;52.474;10.768;2023-05-21T06:21:21;1.47;;;1.07;;
19985;SDS011;10154;52.474;10.768;2023-05-21T06:23:46;1.90;;;0.73;;
19985;SDS011;10154;52.474;10.768;2023-05-21T06:26:12;5.77;;;2.63;;
19985;SDS011;10154;52.474;10.768;2023-05-21T06:28:38;0.40;;;0.40;;
19985;SDS011;10154;52.474;10.768;2023-05-21T06:31:03;6.33;;;3.10;;
19985;SDS011;10154;52.474;10.768;2023-05-21T06:33:29;2.00;;;1.67;;
19985;SDS011;10154;52.474;10.768;2023-05-21T06:35:54;1.57;;;1.47;;
19985;SDS011;10154;52.474;10.768;2023-05-21T06:38:19;5.13;;;3.33;;
19985;SDS011;10154;52.474;10.768;2023-05-21T06:40:45;9.03;;;3.77;;
19985;SDS011;10154;52.474;10.768;2023-05-21T06:43:12;6.60;;;2.17;;
19985;SDS011;10154;52.474;10.768;2023-05-21T06:45:37;10.90;;;3.67;;
19985;SDS011;10154;52.474;10.768;2023-05-21T06:48:03;4.07;;;2.33;;
19985;SDS011;10154;52.474;10.768;2023-05-21T06:50:28;1.13;;;0.70;;
19985;SDS011;10154;52.474;10.768;2023-05-21T06:52:54;5.13;;;2.53;;
19985;SDS011;10154;52.474;10.768;2023-05-21T06:55:19;2.10;;;0.93;;
19985;SDS011;10154;52.474;10.768;2023-05-21T06:57:45;0.53;;;0.53;;
19985;SDS011;10154;52.474;10.768;2023-05-21T07:00:10;5.07;;;1.97;;
19985;SDS011;10154;52.474;10.768;2023-05-21T07:02:36;2.33;;;1.83;;
19985;SDS011;10154;52.474;10.768;2023-05-21T07:05:01;1.57;;;1.43;;
19985;SDS011;10154;52.474;10.768;2023-05-21T07:07:27;0.37;;;0.37;;
19985;SDS011;10154;52.474;10.768;2023-05-21T07:09:52;1.00;;;0.90;;
19985;SDS011;10154;52.474;10.768;2023-05-21T07:12:17;2.43;;;1.67;;
19985;SDS011;10154;52.474;10.768;2023-05-21T07:14:43;4.07;;;2.30;;
19985;SDS011;10154;52.474;10.768;2023-05-21T07:17:08;5.43;;;2.10;;
19985;SDS011;10154;52.474;10.768;2023-05-21T07:19:34;11.60;;;4.20;;
19985;SDS011;10154;52.474;10.768;2023-05-21T07:21:59;2.43;;;1.47;;
19985;SDS011;10154;52.474;10.768;2023-05-21T07:24:24;4.70;;;2.43;;
19985;SDS011;10154;52.474;10.768;2023-05-21T07:26:51;2.37;;;1.33;;
19985;SDS011;10154;52.474;10.768;2023-05-21T07:29:17;4.00;;;2.23;;
19985;SDS011;10154;52.474;10.768;2023-05-21T07:31:42;9.80;;;3.80;;
19985;SDS011;10154;52.474;10.768;2023-05-21T07:34:07;3.00;;;1.38;;
19985;SDS011;10154;52.474;10.768;2023-05-21T07:36:33;12.70;;;5.00;;
19985;SDS011;10154;52.474;10.768;2023-05-21T07:38:58;2.77;;;1.80;;
19985;SDS011;10154;52.474;10.768;2023-05-21T07:41:24;5.97;;;3.55;;
19985;SDS011;10154;52.474;10.768;2023-05-21T07:43:49;9.93;;;4.20;;
19985;SDS011;10154;52.474;10.768;2023-05-21T07:46:15;5.72;;;2.35;;
19985;SDS011;10154;52.474;10.768;2023-05-21T07:48:40;2.67;;;2.00;;
19985;SDS011;10154;52.474;10.768;2023-05-21T07:51:05;3.45;;;2.17;;
19985;SDS011;10154;52.474;10.768;2023-05-21T07:53:31;2.38;;;1.40;;
19985;SDS011;10154;52.474;10.768;2023-05-21T07:55:58;3.03;;;2.05;;
19985;SDS011;10154;52.474;10.768;2023-05-21T07:58:23;6.13;;;3.83;;
19985;SDS011;10154;52.474;10.768;2023-05-21T08:00:49;1.08;;;0.98;;
19985;SDS011;10154;52.474;10.768;2023-05-21T08:03:15;2.83;;;1.95;;
19985;SDS011;10154;52.474;10.768;2023-05-21T08:05:41;5.47;;;2.42;;
19985;SDS011;10154;52.474;10.768;2023-05-21T08:08:09;9.55;;;4.28;;
19985;SDS011;10154;52.474;10.768;2023-05-21T08:10:34;17.55;;;5.22;;
19985;SDS011;10154;52.474;10.768;2023-05-21T08:13:01;5.47;;;2.58;;
19985;SDS011;10154;52.474;10.768;2023-05-21T08:15:26;4.78;;;2.63;;
19985;SDS011;10154;52.474;10.768;2023-05-21T08:17:51;1.95;;;1.60;;
19985;SDS011;10154;52.474;10.768;2023-05-21T08:20:17;4.07;;;2.05;;
19985;SDS011;10154;52.474;10.768;2023-05-21T08:22:44;5.50;;;3.10;;
19985;SDS011;10154;52.474;10.768;2023-05-21T08:25:09;8.20;;;3.55;;
19985;SDS011;10154;52.474;10.768;2023-05-21T08:27:35;6.00;;;3.60;;
19985;SDS011;10154;52.474;10.768;2023-05-21T08:30:00;7.68;;;2.47;;
19985;SDS011;10154;52.474;10.768;2023-05-21T08:32:26;6.22;;;2.70;;
19985;SDS011;10154;52.474;10.768;2023-05-21T08:34:51;5.38;;;3.05;;
19985;SDS011;10154;52.474;10.768;2023-05-21T08:37:17;4.70;;;2.33;;
19985;SDS011;10154;52.474;10.768;2023-05-21T08:39:42;1.33;;;1.23;;
19985;SDS011;10154;52.474;10.768;2023-05-21T08:42:08;3.15;;;2.20;;
19985;SDS011;10154;52.474;10.768;2023-05-21T08:44:39;6.15;;;2.67;;
19985;SDS011;10154;52.474;10.768;2023-05-21T08:47:08;11.43;;;5.65;;
19985;SDS011;10154;52.474;10.768;2023-05-21T08:49:35;2.40;;;1.42;;
19985;SDS011;10154;52.474;10.768;2023-05-21T08:52:01;7.20;;;2.45;;
19985;SDS011;10154;52.474;10.768;2023-05-21T08:54:27;2.90;;;2.70;;
19985;SDS011;10154;52.474;10.768;2023-05-21T08:56:52;1.05;;;0.95;;
19985;SDS011;10154;52.474;10.768;2023-05-21T08:59:19;3.65;;;2.60;;
19985;SDS011;10154;52.474;10.768;2023-05-21T09:01:45;0.85;;;0.77;;
19985;SDS011;10154;52.474;10.768;2023-05-21T09:04:11;2.15;;;1.75;;
19985;SDS011;10154;52.474;10.768;2023-05-21T09:06:40;4.18;;;3.13;;
19985;SDS011;10154;52.474;10.768;2023-05-21T09:09:08;4.28;;;2.42;;
19985;SDS011;10154;52.474;10.768;2023-05-21T09:11:39;6.22;;;3.13;;
19985;SDS011;10154;52.474;10.768;2023-05-21T09:14:06;3.05;;;2.35;;
19985;SDS011;10154;52.474;10.768;2023-05-21T09:16:31;1.45;;;0.77;;
19985;SDS011;10154;52.474;10.768;2023-05-21T09:18:57;8.00;;;2.35;;
19985;SDS011;10154;52.474;10.768;2023-05-21T09:21:23;10.27;;;3.08;;
19985;SDS011;10154;52.474;10.768;2023-05-21T09:23:53;1.35;;;1.17;;
19985;SDS011;10154;52.474;10.768;2023-05-21T09:26:20;11.15;;;5.80;;
19985;SDS011;10154;52.474;10.768;2023-05-21T09:28:46;5.38;;;2.25;;
19985;SDS011;10154;52.474;10.768;2023-05-21T09:31:11;5.63;;;2.88;;
19985;SDS011;10154;52.474;10.768;2023-05-21T09:33:38;6.05;;;3.50;;
19985;SDS011;10154;52.474;10.768;2023-05-21T09:36:10;2.00;;;1.77;;
19985;SDS011;10154;52.474;10.768;2023-05-21T09:38:35;3.03;;;1.88;;
19985;SDS011;10154;52.474;10.768;2023-05-21T09:41:03;13.85;;;1.58;;
19985;SDS011;10154;52.474;10.768;2023-05-21T09:43:29;7.38;;;3.42;;
19985;SDS011;10154;52.474;10.768;2023-05-21T09:45:55;0.35;;;0.35;;
19985;SDS011;10154;52.474;10.768;2023-05-21T09:48:42;3.90;;;1.55;;
19985;SDS011;10154;52.474;10.768;2023-05-21T09:56:10;4.50;;;2.42;;
19985;SDS011;10154;52.474;10.768;2023-05-21T09:58:37;9.35;;;4.82;;
19985;SDS011;10154;52.474;10.768;2023-05-21T10:01:04;4.15;;;2.20;;
19985;SDS011;10154;52.474;10.768;2023-05-21T10:03:31;8.43;;;3.55;;
19985;SDS011;10154;52.474;10.768;2023-05-21T10:05:58;3.22;;;2.17;;
19985;SDS011;10154;52.474;10.768;2023-05-21T10:08:37;6.63;;;3.63;;
19985;SDS011;10154;52.474;10.768;2023-05-21T10:11:13;5.10;;;3.28;;
19985;SDS011;10154;52.474;10.768;2023-05-21T10:13:40;4.15;;;2.55;;
19985;SDS011;10154;52.474;10.768;2023-05-21T10:16:09;2.97;;;1.90;;
19985;SDS011;10154;52.474;10.768;2023-05-21T10:18:34;5.05;;;3.00;;
19985;SDS011;10154;52.474;10.768;2023-05-21T10:21:01;1.40;;;1.17;;
19985;SDS011;10154;52.474;10.768;2023-05-21T10:23:27;10.02;;;4.35;;
19985;SDS011;10154;52.474;10.768;2023-05-21T10:25:53;5.57;;;2.97;;
19985;SDS011;10154;52.474;10.768;2023-05-21T10:28:19;1.08;;;0.93;;
19985;SDS011;10154;52.474;10.768;2023-05-21T10:30:46;3.70;;;2.70;;
19985;SDS011;10154;52.474;10.768;2023-05-21T10:33:12;4.43;;;2.45;;
19985;SDS011;10154;52.474;10.768;2023-05-21T10:35:40;11.10;;;6.13;;
19985;SDS011;10154;52.474;10.768;2023-05-21T10:38:07;12.57;;;7.53;;
19985;SDS011;10154;52.474;10.768;2023-05-21T10:40:33;2.80;;;2.05;;
19985;SDS011;10154;52.474;10.768;2023-05-21T10:45:37;4.13;;;1.67;;
19985;SDS011;10154;52.474;10.768;2023-05-21T10:56:21;0.40;;;0.40;;
19985;SDS011;10154;52.474;10.768;2023-05-21T11:01:15;6.47;;;4.03;;
19985;SDS011;10154;52.474;10.768;2023-05-21T11:03:43;2.47;;;2.10;;
19985;SDS011;10154;52.474;10.768;2023-05-21T11:06:10;3.97;;;2.60;;
19985;SDS011;10154;52.474;10.768;2023-05-21T11:08:35;2.80;;;1.77;;
19985;SDS011;10154;52.474;10.768;2023-05-21T11:11:02;11.45;;;6.30;;
19985;SDS011;10154;52.474;10.768;2023-05-21T11:13:43;1.38;;;1.23;;
19985;SDS011;10154;52.474;10.768;2023-05-21T11:16:12;10.82;;;6.18;;
19985;SDS011;10154;52.474;10.768;2023-05-21T11:21:10;3.60;;;2.30;;
19985;SDS011;10154;52.474;10.768;2023-05-21T11:26:18;3.75;;;2.90;;
19985;SDS011;10154;52.474;10.768;2023-05-21T11:28:45;5.15;;;3.38;;
19985;SDS011;10154;52.474;10.768;2023-05-21T11:31:26;0.47;;;0.47;;
19985;SDS011;10154;52.474;10.768;2023-05-21T11:34:07;14.77;;;6.82;;
19985;SDS011;10154;52.474;10.768;2023-05-21T11:39:47;11.57;;;6.03;;
19985;SDS011;10154;52.474;10.768;2023-05-21T11:42:38;8.95;;;4.72;;
19985;SDS011;10154;52.474;10.768;2023-05-21T11:45:01;10.65;;;3.88;;
19985;SDS011;10154;52.474;10.768;2023-05-21T11:47:28;3.35;;;2.92;;
19985;SDS011;10154;52.474;10.768;2023-05-21T11:49:54;4.47;;;3.35;;
19985;SDS011;10154;52.474;10.768;2023-05-21T11:52:21;12.55;;;7.75;;
19985;SDS011;10154;52.474;10.768;2023-05-21T11:54:50;12.85;;;5.57;;
19985;SDS011;10154;52.474;10.768;2023-05-21T11:57:19;3.88;;;2.20;;
19985;SDS011;10154;52.474;10.768;2023-05-21T11:59:49;2.10;;;1.90;;
19985;SDS011;10154;52.474;10.768;2023-05-21T12:02:18;7.00;;;4.65;;
19985;SDS011;10154;52.474;10.768;2023-05-21T12:04:44;7.72;;;4.45;;
19985;SDS011;10154;52.474;10.768;2023-05-21T12:07:10;7.15;;;3.63;;
19985;SDS011;10154;52.474;10.768;2023-05-21T12:12:08;7.28;;;5.07;;
19985;SDS011;10154;52.474;10.768;2023-05-21T12:14:34;7.55;;;4.13;;
19985;SDS011;10154;52.474;10.768;2023-05-21T12:17:01;8.57;;;4.65;;
19985;SDS011;10154;52.474;10.768;2023-05-21T12:19:27;4.07;;;2.97;;
19985;SDS011;10154;52.474;10.768;2023-05-21T12:21:55;3.58;;;2.15;;
19985;SDS011;10154;52.474;10.768;2023-05-21T12:24:21;6.07;;;2.97;;
19985;SDS011;10154;52.474;10.768;2023-05-21T12:26:46;4.53;;;3.45;;
19985;SDS011;10154;52.474;10.768;2023-05-21T12:29:13;4.32;;;3.25;;
19985;SDS011;10154;52.474;10.768;2023-05-21T12:31:48;8.85;;;5.40;;
19985;SDS011;10154;52.474;10.768;2023-05-21T12:34:13;2.28;;;1.77;;
19985;SDS011;10154;52.474;10.768;2023-05-21T12:36:42;3.65;;;2.85;;
19985;SDS011;10154;52.474;10.768;2023-05-21T12:39:12;3.92;;;2.15;;
19985;SDS011;10154;52.474;10.768;2023-05-21T12:41:38;1.73;;;1.63;;
19985;SDS011;10154;52.474;10.768;2023-05-21T12:44:03;3.40;;;2.75;;
19985;SDS011;10154;52.474;10.768;2023-05-21T12:46:29;9.18;;;4.45;;
19985;SDS011;10154;52.474;10.768;2023-05-21T12:48:55;2.05;;;1.50;;
19985;SDS011;10154;52.474;10.768;2023-05-21T12:51:20;4.90;;;3.33;;
19985;SDS011;10154;52.474;10.768;2023-05-21T12:53:46;10.25;;;6.50;;
19985;SDS011;10154;52.474;10.768;2023-05-21T12:56:12;6.93;;;3.28;;
19985;SDS011;10154;52.474;10.768;2023-05-21T12:58:46;9.30;;;4.35;;
19985;SDS011;10154;52.474;10.768;2023-05-21T13:01:14;3.17;;;1.83;;
19985;SDS011;10154;52.474;10.768;2023-05-21T13:03:42;4.15;;;2.42;;
19985;SDS011;10154;52.474;10.768;2023-05-21T13:06:08;7.20;;;5.03;;
19985;SDS011;10154;52.474;10.768;2023-05-21T13:08:33;3.22;;;2.00;;
19985;SDS011;10154;52.474;10.768;2023-05-21T13:11:00;5.13;;;3.90;;
19985;SDS011;10154;52.474;10.768;2023-05-21T13:13:26;3.08;;;2.35;;
19985;SDS011;10154;52.474;10.768;2023-05-21T13:15:51;3.90;;;2.63;;
19985;SDS011;10154;52.474;10.768;2023-05-21T13:18:17;1.23;;;1.10;;
19985;SDS011;10154;52.474;10.768;2023-05-21T13:20:44;3.80;;;2.25;;
19985;SDS011;10154;52.474;10.768;2023-05-21T13:23:10;6.85;;;4.10;;
19985;SDS011;10154;52.474;10.768;2023-05-21T13:25:35;3.42;;;2.58;;
19985;SDS011;10154;52.474;10.768;2023-05-21T13:28:01;6.07;;;3.00;;
19985;SDS011;10154;52.474;10.768;2023-05-21T13:30:29;4.32;;;2.25;;
19985;SDS011;10154;52.474;10.768;2023-05-21T13:32:54;10.32;;;7.47;;
19985;SDS011;10154;52.474;10.768;2023-05-21T13:35:20;11.80;;;7.82;;
19985;SDS011;10154;52.474;10.768;2023-05-21T13:37:45;11.95;;;8.20;;
19985;SDS011;10154;52.474;10.768;2023-05-21T13:40:11;13.82;;;9.18;;
19985;SDS011;10154;52.474;10.768;2023-05-21T13:42:42;11.07;;;7.82;;
19985;SDS011;10154;52.474;10.768;2023-05-21T13:45:09;13.02;;;7.18;;
19985;SDS011;10154;52.474;10.768;2023-05-21T13:47:35;14.23;;;7.25;;
19985;SDS011;10154;52.474;10.768;2023-05-21T13:50:01;11.73;;;7.63;;
19985;SDS011;10154;52.474;10.768;2023-05-21T13:52:27;11.52;;;7.63;;
19985;SDS011;10154;52.474;10.768;2023-05-21T13:54:52;9.98;;;5.28;;
19985;SDS011;10154;52.474;10.768;2023-05-21T13:57:18;9.82;;;6.38;;
19985;SDS011;10154;52.474;10.768;2023-05-21T13:59:43;9.32;;;6.00;;
19985;SDS011;10154;52.474;10.768;2023-05-21T14:02:09;11.80;;;7.10;;
19985;SDS011;10154;52.474;10.768;2023-05-21T14:04:35;15.80;;;7.47;;
19985;SDS011;10154;52.474;10.768;2023-05-21T14:07:01;11.20;;;6.55;;
19985;SDS011;10154;52.474;10.768;2023-05-21T14:09:27;2.17;;;1.92;;
19985;SDS011;10154;52.474;10.768;2023-05-21T14:11:56;3.60;;;2.42;;
19985;SDS011;10154;52.474;10.768;2023-05-21T14:14:22;1.13;;;1.00;;
19985;SDS011;10154;52.474;10.768;2023-05-21T14:16:48;1.73;;;1.63;;
19985;SDS011;10154;52.474;10.768;2023-05-21T14:19:14;0.40;;;0.40;;
19985;SDS011;10154;52.474;10.768;2023-05-21T14:21:39;3.40;;;0.65;;
19985;SDS011;10154;52.474;10.768;2023-05-21T14:24:05;1.10;;;1.05;;
19985;SDS011;10154;52.474;10.768;2023-05-21T14:26:30;3.15;;;1.73;;
19985;SDS011;10154;52.474;10.768;2023-05-21T14:28:56;1.85;;;1.58;;
19985;SDS011;10154;52.474;10.768;2023-05-21T14:31:21;3.72;;;2.25;;
19985;SDS011;10154;52.474;10.768;2023-05-21T14:33:48;10.00;;;6.70;;
19985;SDS011;10154;52.474;10.768;2023-05-21T14:36:13;1.33;;;0.95;;
19985;SDS011;10154;52.474;10.768;2023-05-21T14:38:39;1.05;;;0.95;;
19985;SDS011;10154;52.474;10.768;2023-05-21T14:41:04;5.95;;;2.45;;
19985;SDS011;10154;52.474;10.768;2023-05-21T14:43:31;1.70;;;1.45;;
19985;SDS011;10154;52.474;10.768;2023-05-21T14:45:56;0.70;;;0.70;;
19985;SDS011;10154;52.474;10.768;2023-05-21T14:48:22;9.10;;;5.57;;
19985;SDS011;10154;52.474;10.768;2023-05-21T14:50:48;2.05;;;1.33;;
19985;SDS011;10154;52.474;10.768;2023-05-21T14:53:15;2.67;;;2.30;;
19985;SDS011;10154;52.474;10.768;2023-05-21T14:55:40;5.40;;;1.23;;
19985;SDS011;10154;52.474;10.768;2023-05-21T14:58:06;5.78;;;2.13;;